sensor_id;sensor_type;location;lat;lon;timestamp;temperature;humidity
24091;DHT22;12272;52.426;17.100;2023-10-31T00:00:05;12.50;99.90
24091;DHT22;12272;52.426;17.100;2023-10-31T00:05:08;12.50;99.90
24091;DHT22;12272;52.426;17.100;2023-10-31T00:10:11;12.30;99.90
24091;DHT22;12272;52.426;17.100;2023-10-31T00:15:14;12.40;99.90
24091;DHT22;12272;52.426;17.100;2023-10-31T00:20:16;12.40;99.90
24091;DHT22;12272;52.426;17.100;2023-10-31T00:25:19;12.50;99.90
24091;DHT22;12272;52.426;17.100;2023-10-31T00:30:22;12.70;99.90
24091;DHT22;12272;52.426;17.100;2023-10-31T00:35:24;12.90;99.90
24091;DHT22;12272;52.426;17.100;2023-10-31T00:40:27;13.00;99.90
24091;DHT22;12272;52.426;17.100;2023-10-31T00:45:29;13.00;99.90
24091;DHT22;12272;52.426;17.100;2023-10-31T00:50:32;13.10;99.90
24091;DHT22;12272;52.426;17.100;2023-10-31T00:55:35;13.20;99.90
24091;DHT22;12272;52.426;17.100;2023-10-31T01:00:37;13.30;99.90
24091;DHT22;12272;52.426;17.100;2023-10-31T01:05:40;13.30;99.90
24091;DHT22;12272;52.426;17.100;2023-10-31T01:10:43;13.30;99.90
24091;DHT22;12272;52.426;17.100;2023-10-31T01:15:45;13.30;99.90
24091;DHT22;12272;52.426;17.100;2023-10-31T01:20:48;13.40;99.90
24091;DHT22;12272;52.426;17.100;2023-10-31T01:25:50;13.40;99.90
24091;DHT22;12272;52.426;17.100;2023-10-31T01:30:53;13.50;99.90
24091;DHT22;12272;52.426;17.100;2023-10-31T01:35:55;13.40;99.90
24091;DHT22;12272;52.426;17.100;2023-10-31T01:40:58;13.30;99.90
24091;DHT22;12272;52.426;17.100;2023-10-31T01:46:01;13.30;99.90
24091;DHT22;12272;52.426;17.100;2023-10-31T01:51:04;13.30;99.90
24091;DHT22;12272;52.426;17.100;2023-10-31T01:56:07;13.70;99.90
24091;DHT22;12272;52.426;17.100;2023-10-31T02:01:10;13.70;99.90
24091;DHT22;12272;52.426;17.100;2023-10-31T02:06:12;13.70;99.90
24091;DHT22;12272;52.426;17.100;2023-10-31T02:11:15;13.60;99.90
24091;DHT22;12272;52.426;17.100;2023-10-31T02:16:18;13.60;99.90
24091;DHT22;12272;52.426;17.100;2023-10-31T02:21:20;13.60;99.90
24091;DHT22;12272;52.426;17.100;2023-10-31T02:26:23;13.60;99.90
24091;DHT22;12272;52.426;17.100;2023-10-31T02:31:26;13.70;99.90
24091;DHT22;12272;52.426;17.100;2023-10-31T02:36:29;13.90;99.90
24091;DHT22;12272;52.426;17.100;2023-10-31T02:41:32;13.80;99.90
24091;DHT22;12272;52.426;17.100;2023-10-31T02:46:38;13.80;99.90
24091;DHT22;12272;52.426;17.100;2023-10-31T02:51:40;13.80;99.90
24091;DHT22;12272;52.426;17.100;2023-10-31T02:56:43;13.80;99.90
24091;DHT22;12272;52.426;17.100;2023-10-31T03:01:45;14.10;99.90
24091;DHT22;12272;52.426;17.100;2023-10-31T03:06:48;14.00;99.90
24091;DHT22;12272;52.426;17.100;2023-10-31T03:11:51;14.00;99.90
24091;DHT22;12272;52.426;17.100;2023-10-31T03:16:53;14.10;99.90
24091;DHT22;12272;52.426;17.100;2023-10-31T03:21:56;14.20;99.90
24091;DHT22;12272;52.426;17.100;2023-10-31T03:26:58;14.20;99.90
24091;DHT22;12272;52.426;17.100;2023-10-31T03:32:01;14.20;99.90
24091;DHT22;12272;52.426;17.100;2023-10-31T03:37:04;14.30;99.90
24091;DHT22;12272;52.426;17.100;2023-10-31T03:42:06;14.30;99.90
24091;DHT22;12272;52.426;17.100;2023-10-31T03:47:09;14.30;99.90
24091;DHT22;12272;52.426;17.100;2023-10-31T03:52:11;14.30;99.90
24091;DHT22;12272;52.426;17.100;2023-10-31T03:57:14;14.20;99.90
24091;DHT22;12272;52.426;17.100;2023-10-31T04:02:17;14.00;99.90
24091;DHT22;12272;52.426;17.100;2023-10-31T04:07:19;14.10;99.90
24091;DHT22;12272;52.426;17.100;2023-10-31T04:12:22;14.30;99.90
24091;DHT22;12272;52.426;17.100;2023-10-31T04:17:24;14.10;99.90
24091;DHT22;12272;52.426;17.100;2023-10-31T04:22:27;14.30;99.90
24091;DHT22;12272;52.426;17.100;2023-10-31T04:27:30;14.20;99.90
24091;DHT22;12272;52.426;17.100;2023-10-31T04:32:32;14.20;99.90
24091;DHT22;12272;52.426;17.100;2023-10-31T04:37:35;14.10;99.90
24091;DHT22;12272;52.426;17.100;2023-10-31T04:42:39;13.90;99.90
24091;DHT22;12272;52.426;17.100;2023-10-31T04:47:45;13.80;99.90
24091;DHT22;12272;52.426;17.100;2023-10-31T04:52:48;13.50;99.90
24091;DHT22;12272;52.426;17.100;2023-10-31T04:57:51;13.50;99.90
24091;DHT22;12272;52.426;17.100;2023-10-31T05:02:53;13.50;99.90
24091;DHT22;12272;52.426;17.100;2023-10-31T05:07:56;13.40;99.90
24091;DHT22;12272;52.426;17.100;2023-10-31T05:13:00;13.50;99.90
24091;DHT22;12272;52.426;17.100;2023-10-31T05:18:04;13.30;99.90
24091;DHT22;12272;52.426;17.100;2023-10-31T05:23:07;13.30;99.90
24091;DHT22;12272;52.426;17.100;2023-10-31T05:28:10;13.30;99.90
24091;DHT22;12272;52.426;17.100;2023-10-31T05:33:15;13.40;99.90
24091;DHT22;12272;52.426;17.100;2023-10-31T05:38:18;13.30;99.90
24091;DHT22;12272;52.426;17.100;2023-10-31T05:43:20;13.40;99.90
24091;DHT22;12272;52.426;17.100;2023-10-31T05:48:22;13.40;99.90
24091;DHT22;12272;52.426;17.100;2023-10-31T05:53:25;13.50;99.90
24091;DHT22;12272;52.426;17.100;2023-10-31T05:58:28;13.60;99.90
24091;DHT22;12272;52.426;17.100;2023-10-31T06:03:32;13.70;99.90
24091;DHT22;12272;52.426;17.100;2023-10-31T06:08:35;13.30;99.90
24091;DHT22;12272;52.426;17.100;2023-10-31T06:13:38;13.20;99.90
24091;DHT22;12272;52.426;17.100;2023-10-31T06:18:40;13.20;99.90
24091;DHT22;12272;52.426;17.100;2023-10-31T06:23:43;13.10;99.90
24091;DHT22;12272;52.426;17.100;2023-10-31T06:28:48;13.10;99.90
24091;DHT22;12272;52.426;17.100;2023-10-31T06:34:10;13.20;99.90
24091;DHT22;12272;52.426;17.100;2023-10-31T06:39:16;13.30;99.90
24091;DHT22;12272;52.426;17.100;2023-10-31T06:44:21;13.30;99.90
24091;DHT22;12272;52.426;17.100;2023-10-31T06:49:24;13.30;99.90
24091;DHT22;12272;52.426;17.100;2023-10-31T06:54:27;13.30;99.90
24091;DHT22;12272;52.426;17.100;2023-10-31T06:59:29;13.40;99.90
24091;DHT22;12272;52.426;17.100;2023-10-31T07:04:32;13.40;99.90
24091;DHT22;12272;52.426;17.100;2023-10-31T07:09:34;13.50;99.90
24091;DHT22;12272;52.426;17.100;2023-10-31T07:14:37;13.50;99.90
24091;DHT22;12272;52.426;17.100;2023-10-31T07:19:39;13.60;99.90
24091;DHT22;12272;52.426;17.100;2023-10-31T07:24:42;13.80;99.90
24091;DHT22;12272;52.426;17.100;2023-10-31T07:29:45;14.00;99.90
24091;DHT22;12272;52.426;17.100;2023-10-31T07:34:48;14.20;99.90
24091;DHT22;12272;52.426;17.100;2023-10-31T07:39:51;14.50;99.90
24091;DHT22;12272;52.426;17.100;2023-10-31T07:44:53;14.60;99.90
24091;DHT22;12272;52.426;17.100;2023-10-31T07:49:56;14.70;99.90
24091;DHT22;12272;52.426;17.100;2023-10-31T07:54:58;15.00;99.90
24091;DHT22;12272;52.426;17.100;2023-10-31T08:00:01;15.30;99.90
24091;DHT22;12272;52.426;17.100;2023-10-31T08:05:14;15.60;99.90
24091;DHT22;12272;52.426;17.100;2023-10-31T08:10:17;15.70;99.90
24091;DHT22;12272;52.426;17.100;2023-10-31T08:15:19;15.70;99.90
24091;DHT22;12272;52.426;17.100;2023-10-31T08:20:22;15.80;99.90
24091;DHT22;12272;52.426;17.100;2023-10-31T08:25:25;15.90;99.90
24091;DHT22;12272;52.426;17.100;2023-10-31T08:30:27;15.90;99.90
24091;DHT22;12272;52.426;17.100;2023-10-31T08:35:30;16.10;99.90
24091;DHT22;12272;52.426;17.100;2023-10-31T08:40:32;16.20;99.90
24091;DHT22;12272;52.426;17.100;2023-10-31T08:45:35;16.10;99.90
24091;DHT22;12272;52.426;17.100;2023-10-31T08:50:37;16.40;99.90
24091;DHT22;12272;52.426;17.100;2023-10-31T08:55:40;16.40;99.90
24091;DHT22;12272;52.426;17.100;2023-10-31T09:00:46;16.50;99.90
24091;DHT22;12272;52.426;17.100;2023-10-31T09:05:49;16.50;99.90
24091;DHT22;12272;52.426;17.100;2023-10-31T09:10:51;16.80;99.90
24091;DHT22;12272;52.426;17.100;2023-10-31T09:15:54;16.60;99.90
24091;DHT22;12272;52.426;17.100;2023-10-31T09:20:56;16.60;99.90
24091;DHT22;12272;52.426;17.100;2023-10-31T09:25:59;16.40;99.90
24091;DHT22;12272;52.426;17.100;2023-10-31T09:31:02;16.40;99.90
24091;DHT22;12272;52.426;17.100;2023-10-31T09:36:05;16.70;99.90
24091;DHT22;12272;52.426;17.100;2023-10-31T09:41:08;16.60;99.90
24091;DHT22;12272;52.426;17.100;2023-10-31T09:46:10;16.40;99.90
24091;DHT22;12272;52.426;17.100;2023-10-31T09:51:14;16.40;99.90
24091;DHT22;12272;52.426;17.100;2023-10-31T09:56:17;16.40;99.90
24091;DHT22;12272;52.426;17.100;2023-10-31T10:01:20;16.30;99.90
24091;DHT22;12272;52.426;17.100;2023-10-31T10:06:23;16.20;99.90
24091;DHT22;12272;52.426;17.100;2023-10-31T10:11:26;16.10;99.90
24091;DHT22;12272;52.426;17.100;2023-10-31T10:16:31;16.40;99.90
24091;DHT22;12272;52.426;17.100;2023-10-31T10:21:47;16.50;99.90
24091;DHT22;12272;52.426;17.100;2023-10-31T10:26:50;16.80;99.90
24091;DHT22;12272;52.426;17.100;2023-10-31T10:31:54;16.90;99.90
24091;DHT22;12272;52.426;17.100;2023-10-31T10:36:57;15.90;99.90
24091;DHT22;12272;52.426;17.100;2023-10-31T10:42:01;15.10;99.90
24091;DHT22;12272;52.426;17.100;2023-10-31T10:47:05;14.50;99.90
24091;DHT22;12272;52.426;17.100;2023-10-31T10:58:01;14.20;99.90
24091;DHT22;12272;52.426;17.100;2023-10-31T11:03:03;14.10;99.90
24091;DHT22;12272;52.426;17.100;2023-10-31T11:08:07;14.00;99.90
24091;DHT22;12272;52.426;17.100;2023-10-31T11:13:11;14.00;99.90
24091;DHT22;12272;52.426;17.100;2023-10-31T11:18:14;13.90;99.90
24091;DHT22;12272;52.426;17.100;2023-10-31T11:23:17;14.80;99.90
24091;DHT22;12272;52.426;17.100;2023-10-31T11:28:20;15.50;99.90
24091;DHT22;12272;52.426;17.100;2023-10-31T11:33:24;16.10;99.90
24091;DHT22;12272;52.426;17.100;2023-10-31T11:38:35;16.30;99.90
24091;DHT22;12272;52.426;17.100;2023-10-31T11:48:50;17.40;99.90
24091;DHT22;12272;52.426;17.100;2023-10-31T11:53:56;18.10;99.90
24091;DHT22;12272;52.426;17.100;2023-10-31T11:59:01;18.50;99.90
24091;DHT22;12272;52.426;17.100;2023-10-31T12:04:04;18.60;99.90
24091;DHT22;12272;52.426;17.100;2023-10-31T12:09:10;18.20;99.90
24091;DHT22;12272;52.426;17.100;2023-10-31T12:14:18;18.20;99.90
24091;DHT22;12272;52.426;17.100;2023-10-31T12:19:21;17.80;99.90
24091;DHT22;12272;52.426;17.100;2023-10-31T12:24:24;17.60;99.90
24091;DHT22;12272;52.426;17.100;2023-10-31T12:29:27;17.50;99.90
24091;DHT22;12272;52.426;17.100;2023-10-31T12:34:29;17.80;99.90
24091;DHT22;12272;52.426;17.100;2023-10-31T12:39:32;17.70;99.90
24091;DHT22;12272;52.426;17.100;2023-10-31T12:44:35;18.00;99.90
24091;DHT22;12272;52.426;17.100;2023-10-31T12:49:38;18.20;99.90
24091;DHT22;12272;52.426;17.100;2023-10-31T12:54:40;17.80;99.90
24091;DHT22;12272;52.426;17.100;2023-10-31T12:59:43;17.80;99.90
24091;DHT22;12272;52.426;17.100;2023-10-31T13:04:46;17.80;99.90
24091;DHT22;12272;52.426;17.100;2023-10-31T13:09:48;17.90;99.90
24091;DHT22;12272;52.426;17.100;2023-10-31T13:14:51;17.60;99.90
24091;DHT22;12272;52.426;17.100;2023-10-31T13:19:53;17.30;99.90
24091;DHT22;12272;52.426;17.100;2023-10-31T13:24:56;17.20;99.90
24091;DHT22;12272;52.426;17.100;2023-10-31T13:29:59;17.30;99.90
24091;DHT22;12272;52.426;17.100;2023-10-31T13:35:01;17.30;99.90
24091;DHT22;12272;52.426;17.100;2023-10-31T13:40:06;17.60;99.90
24091;DHT22;12272;52.426;17.100;2023-10-31T13:45:11;17.50;99.90
24091;DHT22;12272;52.426;17.100;2023-10-31T13:50:13;17.60;99.90
24091;DHT22;12272;52.426;17.100;2023-10-31T13:55:16;17.60;99.90
24091;DHT22;12272;52.426;17.100;2023-10-31T14:00:18;17.70;99.90
24091;DHT22;12272;52.426;17.100;2023-10-31T14:05:21;17.50;99.90
24091;DHT22;12272;52.426;17.100;2023-10-31T14:10:24;17.40;99.90
24091;DHT22;12272;52.426;17.100;2023-10-31T14:15:28;17.10;99.90
24091;DHT22;12272;52.426;17.100;2023-10-31T14:20:30;17.30;99.90
24091;DHT22;12272;52.426;17.100;2023-10-31T14:25:33;16.80;99.90
24091;DHT22;12272;52.426;17.100;2023-10-31T14:30:35;17.10;99.90
24091;DHT22;12272;52.426;17.100;2023-10-31T14:35:38;17.30;99.90
24091;DHT22;12272;52.426;17.100;2023-10-31T14:45:44;17.10;99.90
24091;DHT22;12272;52.426;17.100;2023-10-31T14:50:47;17.10;99.90
24091;DHT22;12272;52.426;17.100;2023-10-31T14:55:51;17.10;99.90
24091;DHT22;12272;52.426;17.100;2023-10-31T15:00:54;16.80;99.90
24091;DHT22;12272;52.426;17.100;2023-10-31T15:05:56;16.90;99.90
24091;DHT22;12272;52.426;17.100;2023-10-31T15:10:59;17.00;99.90
24091;DHT22;12272;52.426;17.100;2023-10-31T15:16:01;16.20;99.90
24091;DHT22;12272;52.426;17.100;2023-10-31T15:21:05;15.00;99.90
24091;DHT22;12272;52.426;17.100;2023-10-31T15:26:07;15.40;99.90
24091;DHT22;12272;52.426;17.100;2023-10-31T15:31:15;15.90;99.90
24091;DHT22;12272;52.426;17.100;2023-10-31T15:36:18;14.80;99.90
24091;DHT22;12272;52.426;17.100;2023-10-31T15:41:21;13.80;99.90
24091;DHT22;12272;52.426;17.100;2023-10-31T15:46:24;13.50;99.90
24091;DHT22;12272;52.426;17.100;2023-10-31T15:51:27;13.20;99.90
24091;DHT22;12272;52.426;17.100;2023-10-31T15:56:29;12.90;99.90
24091;DHT22;12272;52.426;17.100;2023-10-31T16:01:32;12.70;99.90
24091;DHT22;12272;52.426;17.100;2023-10-31T16:06:37;12.90;99.90
24091;DHT22;12272;52.426;17.100;2023-10-31T16:11:40;13.10;99.90
24091;DHT22;12272;52.426;17.100;2023-10-31T16:16:42;13.10;99.90
24091;DHT22;12272;52.426;17.100;2023-10-31T16:21:45;13.20;99.90
24091;DHT22;12272;52.426;17.100;2023-10-31T16:26:47;13.40;99.90
24091;DHT22;12272;52.426;17.100;2023-10-31T16:31:50;13.20;99.90
24091;DHT22;12272;52.426;17.100;2023-10-31T16:36:53;13.30;99.90
24091;DHT22;12272;52.426;17.100;2023-10-31T16:41:56;13.60;99.90
24091;DHT22;12272;52.426;17.100;2023-10-31T16:47:00;14.00;99.90
24091;DHT22;12272;52.426;17.100;2023-10-31T16:52:03;14.20;99.90
24091;DHT22;12272;52.426;17.100;2023-10-31T16:57:05;14.40;99.90
24091;DHT22;12272;52.426;17.100;2023-10-31T17:02:09;14.60;99.90
24091;DHT22;12272;52.426;17.100;2023-10-31T17:07:12;14.80;99.90
24091;DHT22;12272;52.426;17.100;2023-10-31T17:12:14;15.40;99.90
24091;DHT22;12272;52.426;17.100;2023-10-31T17:17:17;16.20;99.90
24091;DHT22;12272;52.426;17.100;2023-10-31T17:22:20;16.40;99.90
24091;DHT22;12272;52.426;17.100;2023-10-31T17:27:22;16.70;99.90
24091;DHT22;12272;52.426;17.100;2023-10-31T17:32:25;17.10;99.90
24091;DHT22;12272;52.426;17.100;2023-10-31T17:37:27;17.30;99.90
24091;DHT22;12272;52.426;17.100;2023-10-31T17:42:30;17.30;99.90
24091;DHT22;12272;52.426;17.100;2023-10-31T17:47:35;16.90;99.90
24091;DHT22;12272;52.426;17.100;2023-10-31T17:52:38;16.80;99.90
24091;DHT22;12272;52.426;17.100;2023-10-31T17:57:40;16.90;99.90
24091;DHT22;12272;52.426;17.100;2023-10-31T18:02:43;17.10;99.90
24091;DHT22;12272;52.426;17.100;2023-10-31T18:07:45;17.20;99.90
24091;DHT22;12272;52.426;17.100;2023-10-31T18:12:48;16.90;99.90
24091;DHT22;12272;52.426;17.100;2023-10-31T18:17:52;17.20;99.90
24091;DHT22;12272;52.426;17.100;2023-10-31T18:22:54;17.10;99.90
24091;DHT22;12272;52.426;17.100;2023-10-31T18:27:57;17.20;99.90
24091;DHT22;12272;52.426;17.100;2023-10-31T18:33:00;17.10;99.90
24091;DHT22;12272;52.426;17.100;2023-10-31T18:38:05;17.00;99.90
24091;DHT22;12272;52.426;17.100;2023-10-31T18:43:09;17.20;99.90
24091;DHT22;12272;52.426;17.100;2023-10-31T18:48:12;16.90;99.90
24091;DHT22;12272;52.426;17.100;2023-10-31T18:53:14;16.70;99.90
24091;DHT22;12272;52.426;17.100;2023-10-31T18:58:17;16.20;99.90
24091;DHT22;12272;52.426;17.100;2023-10-31T19:03:20;15.80;99.90
24091;DHT22;12272;52.426;17.100;2023-10-31T19:08:22;16.00;99.90
24091;DHT22;12272;52.426;17.100;2023-10-31T19:13:28;15.80;99.90
24091;DHT22;12272;52.426;17.100;2023-10-31T19:18:31;16.30;99.90
24091;DHT22;12272;52.426;17.100;2023-10-31T19:23:34;15.80;99.90
24091;DHT22;12272;52.426;17.100;2023-10-31T19:28:37;16.40;99.90
24091;DHT22;12272;52.426;17.100;2023-10-31T19:33:41;16.40;99.90
24091;DHT22;12272;52.426;17.100;2023-10-31T19:38:43;16.50;99.90
24091;DHT22;12272;52.426;17.100;2023-10-31T19:43:46;16.40;99.90
24091;DHT22;12272;52.426;17.100;2023-10-31T19:48:49;16.60;99.90
24091;DHT22;12272;52.426;17.100;2023-10-31T19:53:52;16.50;99.90
24091;DHT22;12272;52.426;17.100;2023-10-31T19:58:55;16.30;99.90
24091;DHT22;12272;52.426;17.100;2023-10-31T20:03:58;16.60;99.90
24091;DHT22;12272;52.426;17.100;2023-10-31T20:09:01;16.60;99.90
24091;DHT22;12272;52.426;17.100;2023-10-31T20:14:04;16.20;99.90
24091;DHT22;12272;52.426;17.100;2023-10-31T20:19:06;16.10;99.90
24091;DHT22;12272;52.426;17.100;2023-10-31T20:24:11;16.20;99.90
24091;DHT22;12272;52.426;17.100;2023-10-31T20:29:15;16.40;99.90
24091;DHT22;12272;52.426;17.100;2023-10-31T20:34:18;16.10;99.90
24091;DHT22;12272;52.426;17.100;2023-10-31T20:39:20;15.90;99.90
24091;DHT22;12272;52.426;17.100;2023-10-31T20:44:23;15.70;99.90
24091;DHT22;12272;52.426;17.100;2023-10-31T20:49:26;15.90;99.90
24091;DHT22;12272;52.426;17.100;2023-10-31T20:54:28;15.90;99.90
24091;DHT22;12272;52.426;17.100;2023-10-31T20:59:31;15.60;99.90
24091;DHT22;12272;52.426;17.100;2023-10-31T21:04:34;16.10;99.90
24091;DHT22;12272;52.426;17.100;2023-10-31T21:09:38;15.80;99.90
24091;DHT22;12272;52.426;17.100;2023-10-31T21:14:41;15.50;99.90
24091;DHT22;12272;52.426;17.100;2023-10-31T21:19:44;15.80;99.90
24091;DHT22;12272;52.426;17.100;2023-10-31T21:24:46;15.70;99.90
24091;DHT22;12272;52.426;17.100;2023-10-31T21:29:49;15.90;99.90
24091;DHT22;12272;52.426;17.100;2023-10-31T21:34:51;15.90;99.90
24091;DHT22;12272;52.426;17.100;2023-10-31T21:39:54;15.30;99.90
24091;DHT22;12272;52.426;17.100;2023-10-31T21:44:56;15.10;99.90
24091;DHT22;12272;52.426;17.100;2023-10-31T21:49:59;15.40;99.90
24091;DHT22;12272;52.426;17.100;2023-10-31T21:55:02;15.20;99.90
24091;DHT22;12272;52.426;17.100;2023-10-31T22:00:05;15.00;99.90
24091;DHT22;12272;52.426;17.100;2023-10-31T22:05:12;14.70;99.90
24091;DHT22;12272;52.426;17.100;2023-10-31T22:10:14;14.90;99.90
24091;DHT22;12272;52.426;17.100;2023-10-31T22:15:17;14.30;99.90
24091;DHT22;12272;52.426;17.100;2023-10-31T22:20:20;14.30;99.90
24091;DHT22;12272;52.426;17.100;2023-10-31T22:25:22;14.60;99.90
24091;DHT22;12272;52.426;17.100;2023-10-31T22:30:25;14.70;99.90
24091;DHT22;12272;52.426;17.100;2023-10-31T22:35:27;14.00;99.90
24091;DHT22;12272;52.426;17.100;2023-10-31T22:40:31;14.00;99.90
24091;DHT22;12272;52.426;17.100;2023-10-31T22:45:34;13.90;99.90
24091;DHT22;12272;52.426;17.100;2023-10-31T22:50:36;13.70;99.90
24091;DHT22;12272;52.426;17.100;2023-10-31T22:55:39;14.00;99.90
24091;DHT22;12272;52.426;17.100;2023-10-31T23:00:41;13.50;99.90
24091;DHT22;12272;52.426;17.100;2023-10-31T23:05:44;13.00;99.90
24091;DHT22;12272;52.426;17.100;2023-10-31T23:10:47;13.70;99.90
24091;DHT22;12272;52.426;17.100;2023-10-31T23:15:49;14.30;99.90
24091;DHT22;12272;52.426;17.100;2023-10-31T23:20:52;14.60;99.90
24091;DHT22;12272;52.426;17.100;2023-10-31T23:25:54;14.90;99.90
24091;DHT22;12272;52.426;17.100;2023-10-31T23:31:00;15.20;99.90
24091;DHT22;12272;52.426;17.100;2023-10-31T23:36:03;15.40;99.90
24091;DHT22;12272;52.426;17.100;2023-10-31T23:41:06;15.30;99.90
24091;DHT22;12272;52.426;17.100;2023-10-31T23:46:08;14.90;99.90
24091;DHT22;12272;52.426;17.100;2023-10-31T23:51:11;14.90;99.90
24091;DHT22;12272;52.426;17.100;2023-10-31T23:56:14;14.60;99.90
